Search for airport 
image banner adimage banner adimage banner ad
image banner ad

02CA - Beta Platform Ellen

Located in Huntington Beach, United States

ICAO - 02CA, IATA -

Data provided by Airmate  

General information

Coordinates: N33°34'58" W118°7'44"
Elevation is 122 feet MSL.
Magnetic variation is 14° East
View others Airports in California

Operational data

Special qualification required
Current time UTC:
Current local time:
Weather at : KSLI - Los Alamitos Aaf ( 24 km )
METAR: KSLI 221256Z AUTO 27004KT 10SM CLR 15/15 A2992 RMK AO2 SLP135 T01470147
TAF: TAF KSLI 221305Z 2213/2319 VRB06KT 9999 OVC008 QNH2992INS TEMPO 2213/2218 SKC BECMG 2217/2218 28006KT 9999 FEW150 QNH2994INS BECMG 2219/2220 26008KT 9999 BKN150 QNH2992INS BECMG 2223/2224 25006KT 9999 BKN100 OVC140 QNH2988INS TEMPO 2300/2306 27008KT 9000 -SHRA BKN090 BECMG 2305/2306 27006KT 9000 -SHRA OVC008 QNH2989INS BECMG 2311/2312 24006KT 9000 BR OVC008 QNH2988INS BECMG 2316/2317 23006KT 9999 NSW FEW140 QNH2993INS TX23/2223Z TN15/2213Z
View NOTAMs / SUP AIP / TFR affecting this airport [VIEW]
Communications frequencies: [VIEW]

Runways:

Airport contact information

Address: Huntington Beach United States

Satellite view of 02CA